Terminal Aerodrome Forecast
Issued by NWS Wilmington, NC

Home | Current Version | Previous Version | Text Only | Print | Product List | Glossary On
Versions: 1 2 3 4 5 6 7 8 9 10 11 12 13 14 15 16 17
000
FTUS42 KILM 281120
TAFILM
TAF
KILM 281120Z 2812/2912 23005KT P6SM BKN090
     FM281500 23008KT P6SM VCSH BKN060
      TEMPO 2816/2820 4SM TSRA OVC050CB
     FM282300 22006KT P6SM SCT050
     FM291000 32005KT P6SM FEW090 FEW250=

USA.gov is the U.S. government's official web portal to all federal, state and local government web resources and services.